Time;durP1;ratioP1;P1;durP2;ratioP2;P2;SDS_P1;SDS_P2;PMS_P1;PMS_P2;Temp;Humidity;BMP_temperature;BMP_pressure;BME280_temperature;BME280_humidity;BME280_pressure;Samples;Min_cycle;Max_cycle;Signal;HPM_P1;HPM_P2
2022/10/30 00:00:57;;;;;;;20.27;10.75;;;13.30;99.90;;;;;;5052097;28;20119;-79
2022/10/30 00:03:23;;;;;;;21.30;11.73;;;13.30;99.90;;;;;;5051760;28;20493;-79
2022/10/30 00:05:50;;;;;;;18.02;11.07;;;13.30;99.90;;;;;;5051715;28;20045;-79
2022/10/30 00:08:18;;;;;;;18.20;10.82;;;13.30;99.90;;;;;;5051594;28;20052;-79
2022/10/30 00:10:45;;;;;;;22.45;11.50;;;13.20;99.90;;;;;;5051746;28;20076;-78
2022/10/30 00:13:12;;;;;;;22.83;10.45;;;13.30;99.90;;;;;;5051105;28;20092;-79
2022/10/30 00:15:38;;;;;;;21.33;11.02;;;13.20;99.90;;;;;;5050966;28;20041;-79
2022/10/30 00:18:04;;;;;;;20.50;11.18;;;13.30;99.90;;;;;;5050789;28;20047;-78
2022/10/30 00:20:29;;;;;;;21.77;11.38;;;13.30;99.90;;;;;;5035091;28;20045;-78
2022/10/30 00:22:55;;;;;;;22.75;10.88;;;13.20;99.90;;;;;;5051231;28;20036;-79
2022/10/30 00:25:21;;;;;;;22.40;11.07;;;13.20;99.90;;;;;;5051337;28;20457;-79
2022/10/30 00:27:46;;;;;;;22.02;11.57;;;13.20;99.90;;;;;;5051502;28;20037;-79
2022/10/30 00:30:14;;;;;;;21.50;11.57;;;13.20;99.90;;;;;;5051684;28;20394;-79
2022/10/30 00:32:40;;;;;;;18.05;10.45;;;13.20;99.90;;;;;;5051221;28;20037;-79
2022/10/30 00:35:05;;;;;;;18.20;10.68;;;13.20;99.90;;;;;;5051545;28;20128;-79
2022/10/30 00:37:31;;;;;;;23.58;10.70;;;13.10;99.90;;;;;;5051572;28;20471;-79
2022/10/30 00:39:56;;;;;;;16.67;10.27;;;13.10;99.90;;;;;;5051544;28;20095;-79
2022/10/30 00:42:29;;;;;;;21.73;11.65;;;13.10;99.90;;;;;;5051590;28;20044;-79
2022/10/30 00:44:54;;;;;;;18.10;11.13;;;13.10;99.90;;;;;;5051518;28;20048;-79
2022/10/30 00:47:33;;;;;;;18.30;11.02;;;13.10;99.90;;;;;;5051450;28;20403;-80
2022/10/30 00:50:08;;;;;;;24.27;11.60;;;13.00;99.90;;;;;;5051561;28;20114;-79
2022/10/30 00:52:39;;;;;;;18.25;9.77;;;13.00;99.90;;;;;;5051312;28;20048;-79
2022/10/30 00:55:10;;;;;;;20.63;10.48;;;13.00;99.90;;;;;;5051488;28;20045;-79
2022/10/30 00:57:38;;;;;;;20.55;11.27;;;13.00;99.90;;;;;;5051945;28;20586;-79
2022/10/30 01:00:05;;;;;;;20.05;10.95;;;13.00;99.90;;;;;;5051390;28;20044;-80
2022/10/30 01:02:31;;;;;;;21.85;10.50;;;13.00;99.90;;;;;;5051532;28;20410;-79
2022/10/30 01:04:57;;;;;;;15.75;10.15;;;13.00;99.90;;;;;;5037664;28;20069;-79
2022/10/30 01:07:23;;;;;;;16.15;10.10;;;13.00;99.90;;;;;;5046073;28;20414;-78
2022/10/30 01:09:48;;;;;;;19.65;11.13;;;13.00;99.90;;;;;;5051362;28;20064;-79
2022/10/30 01:12:15;;;;;;;25.40;11.30;;;12.90;99.90;;;;;;5051598;28;20044;-79
2022/10/30 01:14:50;;;;;;;22.65;10.82;;;12.90;99.90;;;;;;5051065;28;20037;-79
2022/10/30 01:17:36;;;;;;;17.80;10.05;;;12.90;99.90;;;;;;5051941;28;20051;-79
2022/10/30 01:20:13;;;;;;;19.77;9.95;;;12.90;99.90;;;;;;5051615;28;20033;-79
2022/10/30 01:23:10;;;;;;;19.40;10.98;;;12.90;99.90;;;;;;5051454;28;20422;-80
2022/10/30 01:25:53;;;;;;;23.85;10.13;;;12.90;99.90;;;;;;5051004;28;20045;-79
2022/10/30 01:28:43;;;;;;;23.23;10.35;;;12.90;99.90;;;;;;5051214;28;20052;-79
2022/10/30 01:31:33;;;;;;;20.83;10.02;;;12.90;99.90;;;;;;5051353;28;20045;-80
2022/10/30 01:34:24;;;;;;;21.92;10.18;;;12.90;99.90;;;;;;5051212;28;20568;-80
2022/10/30 01:37:12;;;;;;;18.45;10.32;;;12.90;99.90;;;;;;5034689;28;20069;-80
2022/10/30 01:39:39;;;;;;;19.00;10.32;;;12.90;99.90;;;;;;5050928;28;20076;-78
2022/10/30 01:42:10;;;;;;;21.27;10.38;;;12.90;99.90;;;;;;5050911;28;20057;-79
2022/10/30 01:44:37;;;;;;;21.05;10.55;;;12.90;99.90;;;;;;5047897;28;20120;-79
2022/10/30 01:47:29;;;;;;;23.80;10.00;;;12.90;99.90;;;;;;5051351;28;20083;-79
2022/10/30 01:50:19;;;;;;;19.95;10.55;;;12.90;99.90;;;;;;5050998;28;20360;-79
2022/10/30 01:53:02;;;;;;;19.08;10.68;;;12.90;99.90;;;;;;5050796;28;20130;-78
2022/10/30 01:55:42;;;;;;;19.33;10.65;;;12.90;99.90;;;;;;5051628;28;20039;-79
2022/10/30 01:58:35;;;;;;;21.95;10.63;;;13.00;99.90;;;;;;5055094;28;20396;-79
2022/10/30 02:01:01;;;;;;;25.05;11.40;;;13.00;99.90;;;;;;5054626;28;20116;-79
2022/10/30 02:03:27;;;;;;;21.92;11.10;;;13.00;99.90;;;;;;5054936;28;20102;-78
2022/10/30 02:05:53;;;;;;;22.60;11.20;;;13.00;99.90;;;;;;5054164;28;20122;-79
2022/10/30 02:08:20;;;;;;;24.83;11.15;;;12.90;99.90;;;;;;5053726;28;20537;-79
2022/10/30 02:10:48;;;;;;;21.75;11.35;;;12.90;99.90;;;;;;5053190;28;20033;-79
2022/10/30 02:13:14;;;;;;;18.27;10.43;;;13.00;99.90;;;;;;5054708;28;20048;-78
2022/10/30 02:15:41;;;;;;;17.92;9.75;;;12.90;99.90;;;;;;5054657;28;20093;-79
2022/10/30 02:18:08;;;;;;;22.25;11.27;;;12.90;99.90;;;;;;5055050;28;20634;-79
2022/10/30 02:20:33;;;;;;;20.17;10.70;;;13.00;99.90;;;;;;5054284;28;20045;-78
2022/10/30 02:22:59;;;;;;;22.05;10.90;;;12.90;99.90;;;;;;5054130;28;20127;-79
2022/10/30 02:25:25;;;;;;;19.38;11.18;;;13.00;99.90;;;;;;5038020;28;20041;-79
2022/10/30 02:27:51;;;;;;;17.50;10.65;;;12.90;99.90;;;;;;5054303;28;20116;-78
2022/10/30 02:30:16;;;;;;;22.58;11.30;;;13.00;99.90;;;;;;5037552;28;20044;-79
2022/10/30 02:32:42;;;;;;;20.33;10.65;;;12.90;99.90;;;;;;5054157;28;20041;-79
2022/10/30 02:35:07;;;;;;;21.25;10.57;;;12.90;99.90;;;;;;5054190;28;20041;-79
2022/10/30 02:37:34;;;;;;;21.75;10.65;;;12.90;99.90;;;;;;5053051;28;20418;-79
2022/10/30 02:40:01;;;;;;;20.17;10.95;;;12.90;99.90;;;;;;5054010;28;20059;-79
2022/10/30 02:42:26;;;;;;;21.98;11.75;;;12.90;99.90;;;;;;5053852;28;20522;-79
2022/10/30 02:44:52;;;;;;;23.10;10.63;;;12.90;99.90;;;;;;5053723;28;20041;-78
2022/10/30 02:47:17;;;;;;;21.83;10.32;;;12.90;99.90;;;;;;5042269;28;20495;-79
2022/10/30 02:49:43;;;;;;;20.27;11.55;;;12.90;99.90;;;;;;5034060;28;20064;-79
2022/10/30 02:52:08;;;;;;;17.50;10.25;;;12.90;99.90;;;;;;5049125;28;20083;-79
2022/10/30 02:54:35;;;;;;;22.15;10.90;;;12.90;99.90;;;;;;5053818;28;20086;-80
2022/10/30 02:57:00;;;;;;;23.17;11.60;;;12.80;99.90;;;;;;5053606;28;20098;-80
2022/10/30 02:59:26;;;;;;;21.45;11.23;;;12.80;99.90;;;;;;5054000;28;20383;-80
2022/10/30 03:01:52;;;;;;;22.13;11.63;;;12.80;99.90;;;;;;5053515;28;20037;-79
2022/10/30 03:04:17;;;;;;;19.45;10.82;;;12.80;99.90;;;;;;5051627;28;20037;-79
2022/10/30 03:06:43;;;;;;;18.65;10.18;;;12.80;99.90;;;;;;5052338;28;20040;-79
2022/10/30 03:09:08;;;;;;;22.85;11.05;;;12.90;99.90;;;;;;5053159;28;20040;-79
2022/10/30 03:11:34;;;;;;;22.73;11.57;;;12.80;99.90;;;;;;5053262;28;20037;-79
2022/10/30 03:14:00;;;;;;;24.10;10.93;;;12.80;99.90;;;;;;5052877;28;20036;-79
2022/10/30 03:16:29;;;;;;;22.00;10.77;;;12.90;99.90;;;;;;5053358;28;20080;-79
2022/10/30 03:18:56;;;;;;;18.25;9.98;;;12.80;99.90;;;;;;5053843;28;20048;-79
2022/10/30 03:21:24;;;;;;;16.77;9.93;;;12.80;99.90;;;;;;5053210;28;20048;-78
2022/10/30 03:23:50;;;;;;;24.45;10.55;;;12.80;99.90;;;;;;5053405;28;20391;-78
2022/10/30 03:26:16;;;;;;;20.73;11.35;;;12.80;99.90;;;;;;5053066;28;20051;-79
2022/10/30 03:28:41;;;;;;;22.52;10.45;;;12.80;99.90;;;;;;5052936;28;20151;-79
2022/10/30 03:31:09;;;;;;;19.77;11.25;;;12.80;99.90;;;;;;5052278;28;20044;-79
2022/10/30 03:33:35;;;;;;;20.38;11.20;;;12.80;99.90;;;;;;5052780;28;20047;-79
2022/10/30 03:36:02;;;;;;;19.88;10.95;;;12.80;99.90;;;;;;5052702;28;20037;-80
2022/10/30 03:38:28;;;;;;;19.95;10.52;;;12.80;99.90;;;;;;5053427;28;20595;-78
2022/10/30 03:40:54;;;;;;;22.45;10.45;;;12.80;99.90;;;;;;5052710;28;20080;-80
2022/10/30 03:43:20;;;;;;;22.52;11.13;;;12.80;99.90;;;;;;5053054;28;20072;-79
2022/10/30 03:45:47;;;;;;;22.73;11.18;;;12.80;99.90;;;;;;5052640;28;20106;-79
2022/10/30 03:48:13;;;;;;;20.25;10.57;;;12.70;99.90;;;;;;5052457;28;20033;-79
2022/10/30 03:50:38;;;;;;;19.67;10.65;;;12.70;99.90;;;;;;5053195;28;20532;-79
2022/10/30 03:53:04;;;;;;;21.10;11.13;;;12.70;99.90;;;;;;5052610;28;20037;-79
2022/10/30 03:55:29;;;;;;;19.88;11.40;;;12.70;99.90;;;;;;5052731;28;20084;-80
2022/10/30 03:57:55;;;;;;;22.58;11.02;;;12.70;99.90;;;;;;5052224;28;20041;-79
2022/10/30 04:00:20;;;;;;;25.20;10.98;;;12.70;99.90;;;;;;5052838;28;20041;-79
2022/10/30 04:02:50;;;;;;;18.95;11.60;;;12.70;99.90;;;;;;5052043;28;20087;-79
2022/10/30 04:05:18;;;;;;;21.90;11.05;;;12.70;99.90;;;;;;5051570;28;20128;-79
2022/10/30 04:07:44;;;;;;;21.58;10.85;;;12.70;99.90;;;;;;5052454;28;20041;-79
2022/10/30 04:10:11;;;;;;;17.40;10.68;;;12.70;99.90;;;;;;5051775;28;20458;-79
2022/10/30 04:12:36;;;;;;;18.95;10.88;;;12.70;99.90;;;;;;5051468;28;20037;-79
2022/10/30 04:15:02;;;;;;;21.30;10.48;;;12.70;99.90;;;;;;5052206;28;20040;-79
2022/10/30 04:17:28;;;;;;;20.85;11.68;;;12.70;99.90;;;;;;5052493;28;20502;-79
2022/10/30 04:19:54;;;;;;;21.60;11.55;;;12.70;99.90;;;;;;5052007;28;20033;-79
2022/10/30 04:22:19;;;;;;;22.05;11.20;;;12.70;99.90;;;;;;5052227;28;20456;-79
2022/10/30 04:24:45;;;;;;;23.45;11.43;;;12.60;99.90;;;;;;5051730;28;20045;-78
2022/10/30 04:27:12;;;;;;;20.83;11.65;;;12.70;99.90;;;;;;5052312;28;20052;-79
2022/10/30 04:29:37;;;;;;;18.88;11.00;;;12.70;99.90;;;;;;5052204;28;20554;-79
2022/10/30 04:32:03;;;;;;;21.33;11.50;;;12.60;99.90;;;;;;5053155;28;20033;-79
2022/10/30 04:34:30;;;;;;;22.20;12.10;;;12.60;99.90;;;;;;5051959;28;20041;-79
2022/10/30 04:36:55;;;;;;;22.30;11.43;;;12.60;99.90;;;;;;5052196;28;20590;-79
2022/10/30 04:39:21;;;;;;;21.88;11.30;;;12.60;99.90;;;;;;5051869;28;20044;-79
2022/10/30 04:41:47;;;;;;;22.73;11.75;;;12.70;99.90;;;;;;5051571;28;20041;-79
2022/10/30 04:44:12;;;;;;;27.67;12.13;;;12.60;99.90;;;;;;5051792;28;20156;-79
2022/10/30 04:46:38;;;;;;;22.67;11.52;;;12.60;99.90;;;;;;5051827;28;20036;-79
2022/10/30 04:49:03;;;;;;;20.23;10.70;;;12.60;99.90;;;;;;5051912;28;20072;-80
2022/10/30 04:51:29;;;;;;;19.33;11.60;;;12.60;99.90;;;;;;5051593;28;20036;-79
2022/10/30 04:53:54;;;;;;;22.33;11.32;;;12.60;99.90;;;;;;5051782;28;20592;-79
2022/10/30 04:56:20;;;;;;;21.05;11.45;;;12.60;99.90;;;;;;5051414;28;20087;-80
2022/10/30 04:58:45;;;;;;;22.90;11.32;;;12.60;99.90;;;;;;5052076;28;20541;-80
2022/10/30 05:01:11;;;;;;;22.50;11.30;;;12.50;99.90;;;;;;5052621;28;20037;-80
2022/10/30 05:03:37;;;;;;;24.58;11.25;;;12.50;99.90;;;;;;5053056;28;20037;-79
2022/10/30 05:06:05;;;;;;;24.25;11.77;;;12.50;99.90;;;;;;5044632;28;20034;-79
2022/10/30 05:08:31;;;;;;;22.27;11.82;;;12.40;99.90;;;;;;5043883;28;20037;-78
2022/10/30 05:10:58;;;;;;;23.50;12.10;;;12.50;99.90;;;;;;5053225;28;20444;-79
2022/10/30 05:13:24;;;;;;;23.33;12.05;;;12.50;99.90;;;;;;5052758;28;20072;-79
2022/10/30 05:15:49;;;;;;;22.25;11.95;;;12.50;99.90;;;;;;5053020;28;20521;-80
2022/10/30 05:18:15;;;;;;;25.17;12.57;;;12.50;99.90;;;;;;5052856;28;20053;-78
2022/10/30 05:20:40;;;;;;;23.15;11.70;;;12.50;99.90;;;;;;5051502;28;20132;-80
2022/10/30 05:23:06;;;;;;;23.00;11.35;;;12.50;99.90;;;;;;5052609;28;20068;-79
2022/10/30 05:25:32;;;;;;;23.33;12.38;;;12.50;99.90;;;;;;5051537;28;20091;-79
2022/10/30 05:27:58;;;;;;;22.73;12.15;;;12.50;99.90;;;;;;5053328;28;20085;-79
2022/10/30 05:30:25;;;;;;;21.88;12.05;;;12.50;99.90;;;;;;5053642;28;20085;-79
2022/10/30 05:32:56;;;;;;;21.15;12.35;;;12.50;99.90;;;;;;5055406;28;20040;-80
2022/10/30 05:35:22;;;;;;;20.75;12.52;;;12.50;99.90;;;;;;5057264;28;20063;-80
2022/10/30 05:37:47;;;;;;;24.67;12.95;;;12.40;99.90;;;;;;5056187;28;20049;-79
2022/10/30 05:40:13;;;;;;;24.42;12.40;;;12.40;99.90;;;;;;5055342;28;20541;-80
2022/10/30 05:42:44;;;;;;;23.42;12.73;;;12.40;99.90;;;;;;5056828;28;20037;-79
2022/10/30 05:45:10;;;;;;;22.42;11.40;;;12.40;99.90;;;;;;5056723;28;20037;-79
2022/10/30 05:47:35;;;;;;;23.58;11.95;;;12.30;99.90;;;;;;5056555;28;20028;-79
2022/10/30 05:50:01;;;;;;;25.77;12.02;;;12.30;99.90;;;;;;5055442;28;20120;-80
2022/10/30 05:52:28;;;;;;;25.02;12.13;;;12.30;99.90;;;;;;5055750;28;20048;-79
2022/10/30 05:54:53;;;;;;;24.63;11.77;;;12.30;99.90;;;;;;5056262;28;20108;-79
2022/10/30 05:57:20;;;;;;;22.85;12.68;;;12.20;99.90;;;;;;5055584;28;20041;-79
2022/10/30 05:59:45;;;;;;;20.13;12.38;;;12.20;99.90;;;;;;5056902;28;20049;-79
2022/10/30 06:02:11;;;;;;;23.75;12.52;;;12.20;99.90;;;;;;5056683;28;20487;-79
2022/10/30 06:04:36;;;;;;;21.10;12.68;;;12.20;99.90;;;;;;5056494;28;20041;-79
2022/10/30 06:07:02;;;;;;;23.27;12.73;;;12.10;99.90;;;;;;5056274;28;20067;-80
2022/10/30 06:09:27;;;;;;;21.80;12.02;;;12.10;99.90;;;;;;5055260;28;20040;-79
2022/10/30 06:11:53;;;;;;;21.60;12.55;;;12.10;99.90;;;;;;5056187;28;20498;-79
2022/10/30 06:14:18;;;;;;;20.80;12.77;;;12.10;99.90;;;;;;5057358;28;20047;-79
2022/10/30 06:16:44;;;;;;;20.35;12.48;;;12.00;99.90;;;;;;5056794;28;20041;-79
2022/10/30 06:19:09;;;;;;;25.95;13.05;;;12.00;99.90;;;;;;5056416;28;20090;-79
2022/10/30 06:21:35;;;;;;;22.27;12.90;;;12.00;99.90;;;;;;5055911;28;20047;-79
2022/10/30 06:24:00;;;;;;;24.77;13.02;;;12.00;99.90;;;;;;5056408;28;20545;-79
2022/10/30 06:26:26;;;;;;;22.02;12.75;;;12.00;99.90;;;;;;5056428;28;20171;-79
2022/10/30 06:28:52;;;;;;;23.95;13.57;;;12.00;99.90;;;;;;5056283;28;20067;-79
2022/10/30 06:31:17;;;;;;;27.35;13.00;;;12.00;99.90;;;;;;5055373;28;20104;-79
2022/10/30 06:33:43;;;;;;;28.92;13.38;;;12.00;99.90;;;;;;5054774;28;20049;-80
2022/10/30 06:36:08;;;;;;;25.02;13.02;;;12.00;99.90;;;;;;5055740;28;20091;-80
2022/10/30 06:38:34;;;;;;;25.15;12.77;;;12.00;99.90;;;;;;5056024;28;20048;-78
2022/10/30 06:40:59;;;;;;;26.65;13.13;;;12.00;99.90;;;;;;5056059;28;20051;-79
2022/10/30 06:43:25;;;;;;;24.67;14.05;;;12.00;99.90;;;;;;5055780;28;20048;-79
2022/10/30 06:45:50;;;;;;;21.92;12.77;;;12.10;99.90;;;;;;5056447;28;20063;-80
2022/10/30 06:48:17;;;;;;;27.63;14.63;;;12.10;99.90;;;;;;5054752;28;20028;-79
2022/10/30 06:50:43;;;;;;;22.40;14.05;;;12.10;99.90;;;;;;5055060;28;20033;-79
2022/10/30 06:53:09;;;;;;;23.13;13.60;;;12.10;99.90;;;;;;5055341;28;20033;-79
2022/10/30 06:55:34;;;;;;;30.02;13.43;;;12.10;99.90;;;;;;5055545;28;20045;-79
2022/10/30 06:58:00;;;;;;;25.50;13.73;;;12.10;99.90;;;;;;5055058;28;20045;-79
2022/10/30 07:00:25;;;;;;;23.65;13.38;;;12.10;99.90;;;;;;5055528;28;20037;-80
2022/10/30 07:02:58;;;;;;;26.77;13.43;;;12.10;99.90;;;;;;5054404;28;20040;-79
2022/10/30 07:05:24;;;;;;;26.65;14.80;;;12.10;99.90;;;;;;5055711;28;20045;-80
2022/10/30 07:07:50;;;;;;;25.20;13.63;;;12.10;99.90;;;;;;5044925;28;20036;-79
2022/10/30 07:10:15;;;;;;;24.83;13.20;;;12.10;99.90;;;;;;5054292;28;20091;-80
2022/10/30 07:12:41;;;;;;;25.35;14.00;;;12.10;99.90;;;;;;5053492;28;20039;-78
2022/10/30 07:15:06;;;;;;;25.05;13.90;;;12.10;99.90;;;;;;5052349;28;20049;-79
2022/10/30 07:17:32;;;;;;;25.42;13.95;;;12.20;99.90;;;;;;5052804;28;20094;-80
2022/10/30 07:19:57;;;;;;;23.52;13.57;;;12.20;99.90;;;;;;5053022;28;20032;-79
2022/10/30 07:22:23;;;;;;;20.02;12.95;;;12.20;99.90;;;;;;5053187;28;20544;-78
2022/10/30 07:24:48;;;;;;;24.88;14.13;;;12.20;99.90;;;;;;5053184;28;20041;-80
2022/10/30 07:27:14;;;;;;;23.77;13.93;;;12.30;99.90;;;;;;5053396;28;20530;-79
2022/10/30 07:29:40;;;;;;;26.63;14.07;;;12.30;99.90;;;;;;5054569;28;20033;-79
2022/10/30 07:32:05;;;;;;;24.77;13.70;;;12.30;99.90;;;;;;5054646;28;20037;-79
2022/10/30 07:34:31;;;;;;;23.42;13.75;;;12.30;99.90;;;;;;5053989;28;20037;-80
2022/10/30 07:36:56;;;;;;;26.23;14.50;;;12.40;99.90;;;;;;5054757;28;20037;-79
2022/10/30 07:39:22;;;;;;;24.73;13.68;;;12.40;99.90;;;;;;5063737;28;20047;-78
2022/10/30 07:41:49;;;;;;;26.95;14.63;;;12.40;99.90;;;;;;5057468;28;20037;-80
2022/10/30 07:44:14;;;;;;;23.02;13.45;;;12.50;99.90;;;;;;5052777;28;20499;-80
2022/10/30 07:46:40;;;;;;;28.27;13.73;;;12.50;99.90;;;;;;5052222;28;20049;-79
2022/10/30 07:49:05;;;;;;;21.70;13.82;;;12.50;99.90;;;;;;5053050;28;20105;-79
2022/10/30 07:51:31;;;;;;;25.33;13.73;;;12.60;99.90;;;;;;5053623;28;20044;-79
2022/10/30 07:53:56;;;;;;;23.52;13.85;;;12.60;99.90;;;;;;5051954;28;20043;-79
2022/10/30 07:56:22;;;;;;;22.40;14.02;;;12.70;99.90;;;;;;5052538;28;20521;-81
2022/10/30 07:58:47;;;;;;;20.27;13.32;;;12.80;99.90;;;;;;5052468;28;20044;-80
2022/10/30 08:01:13;;;;;;;27.35;14.32;;;12.80;99.90;;;;;;5053692;28;20116;-79
2022/10/30 08:03:38;;;;;;;24.58;13.68;;;12.90;99.90;;;;;;5053807;28;20051;-79
2022/10/30 08:06:04;;;;;;;24.13;13.77;;;13.00;99.90;;;;;;5049420;28;20414;-77
2022/10/30 08:08:31;;;;;;;24.45;14.23;;;13.00;99.90;;;;;;5051732;28;20117;-80
2022/10/30 08:10:56;;;;;;;23.05;13.43;;;13.10;99.90;;;;;;5053668;28;20037;-80
2022/10/30 08:13:22;;;;;;;24.60;13.95;;;13.20;99.90;;;;;;5053669;28;20039;-80
2022/10/30 08:15:48;;;;;;;21.15;13.50;;;13.30;99.90;;;;;;5053290;28;20083;-80
2022/10/30 08:18:14;;;;;;;24.33;13.55;;;13.30;99.90;;;;;;5053574;28;20557;-79
2022/10/30 08:20:39;;;;;;;25.65;14.27;;;13.40;99.90;;;;;;5051964;28;20072;-80
2022/10/30 08:23:05;;;;;;;22.77;13.73;;;13.40;99.90;;;;;;5052945;28;20044;-80
2022/10/30 08:25:30;;;;;;;23.20;13.43;;;13.50;99.90;;;;;;5052707;28;20048;-80
2022/10/30 08:28:00;;;;;;;24.90;13.13;;;13.50;99.90;;;;;;5053259;28;20037;-80
2022/10/30 08:30:31;;;;;;;18.60;13.13;;;13.60;99.90;;;;;;5052546;28;20047;-80
2022/10/30 08:33:02;;;;;;;25.17;13.05;;;13.60;99.90;;;;;;5053307;28;20400;-80
2022/10/30 08:35:27;;;;;;;21.15;12.85;;;13.70;99.90;;;;;;5053745;28;20036;-79
2022/10/30 08:37:57;;;;;;;26.17;13.90;;;13.80;99.90;;;;;;5053351;28;20560;-79
2022/10/30 08:40:23;;;;;;;23.92;13.60;;;13.80;99.90;;;;;;5053453;28;20383;-79
2022/10/30 08:42:53;;;;;;;24.15;13.18;;;13.90;99.90;;;;;;5055415;28;20063;-79
2022/10/30 08:45:20;;;;;;;22.52;13.63;;;14.00;99.90;;;;;;5053185;28;20041;-80
2022/10/30 08:47:46;;;;;;;22.17;12.98;;;14.00;99.90;;;;;;5053970;28;20033;-80
2022/10/30 08:50:11;;;;;;;27.52;13.85;;;14.20;99.90;;;;;;5052859;28;20677;-79
2022/10/30 08:52:37;;;;;;;25.95;13.35;;;14.20;99.90;;;;;;5051944;28;20082;-81
2022/10/30 08:55:03;;;;;;;25.08;13.77;;;14.30;99.90;;;;;;5052411;28;20093;-79
2022/10/30 08:57:33;;;;;;;20.40;13.30;;;14.40;99.90;;;;;;5052643;28;20421;-78
2022/10/30 08:59:59;;;;;;;24.40;12.90;;;14.50;99.90;;;;;;5052474;28;20041;-80
2022/10/30 09:02:24;;;;;;;23.38;13.25;;;14.60;99.90;;;;;;5051430;28;20071;-79
2022/10/30 09:04:50;;;;;;;22.40;12.88;;;14.70;99.90;;;;;;5054373;28;20043;-79
2022/10/30 09:07:15;;;;;;;22.83;13.60;;;14.70;99.90;;;;;;5057381;28;20056;-80
2022/10/30 09:09:41;;;;;;;24.02;13.45;;;14.80;99.90;;;;;;5044982;28;20047;-80
2022/10/30 09:12:06;;;;;;;18.95;12.10;;;14.90;99.90;;;;;;5055171;28;20036;-78
2022/10/30 09:14:32;;;;;;;22.30;12.60;;;14.90;99.90;;;;;;5055953;28;20052;-79
2022/10/30 09:16:58;;;;;;;22.45;12.10;;;15.00;99.90;;;;;;5057497;28;20422;-79
2022/10/30 09:19:23;;;;;;;21.88;12.48;;;15.10;99.90;;;;;;5055735;28;20410;-79
2022/10/30 09:21:49;;;;;;;21.27;11.65;;;15.10;99.90;;;;;;5055225;28;20119;-79
2022/10/30 09:24:14;;;;;;;21.63;12.30;;;15.20;99.90;;;;;;5055682;28;20661;-79
2022/10/30 09:26:40;;;;;;;21.27;12.45;;;15.30;99.90;;;;;;5053760;28;20040;-79
2022/10/30 09:29:05;;;;;;;23.52;12.68;;;15.40;99.90;;;;;;5055250;28;20060;-80
2022/10/30 09:31:31;;;;;;;21.10;11.63;;;15.50;99.90;;;;;;5055043;28;20037;-79
2022/10/30 09:33:56;;;;;;;19.77;12.27;;;15.50;99.90;;;;;;5055509;28;20087;-79
2022/10/30 09:36:22;;;;;;;23.45;12.13;;;15.60;99.90;;;;;;5055878;28;20037;-80
2022/10/30 09:38:47;;;;;;;25.38;12.90;;;15.70;99.90;;;;;;5056052;28;20059;-79
2022/10/30 09:41:44;;;;;;;22.67;11.57;;;15.70;99.90;;;;;;5056257;28;20407;-79
2022/10/30 09:44:27;;;;;;;22.55;11.77;;;15.80;99.90;;;;;;5055182;28;20037;-80
2022/10/30 09:47:31;;;;;;;17.55;10.60;;;16.00;99.90;;;;;;5055462;28;20441;-79
2022/10/30 09:50:24;;;;;;;18.90;11.23;;;16.10;99.90;;;;;;5054753;28;20059;-79
2022/10/30 09:53:00;;;;;;;19.27;10.40;;;16.20;99.90;;;;;;5055033;28;20037;-80
2022/10/30 09:55:37;;;;;;;21.10;10.90;;;16.20;99.90;;;;;;5055202;28;20033;-80
2022/10/30 09:58:20;;;;;;;18.55;10.50;;;16.20;99.90;;;;;;5055047;28;20060;-79
2022/10/30 10:01:00;;;;;;;18.48;10.52;;;16.30;99.90;;;;;;5054055;28;20053;-79
2022/10/30 10:03:54;;;;;;;20.13;10.68;;;16.30;99.90;;;;;;5053161;28;20398;-80
2022/10/30 10:06:20;;;;;;;23.80;10.38;;;16.40;99.90;;;;;;5052760;28;20072;-80
2022/10/30 10:09:11;;;;;;;23.08;11.60;;;16.40;99.90;;;;;;5053331;28;20037;-80
2022/10/30 10:11:41;;;;;;;17.98;10.85;;;16.50;99.90;;;;;;5052105;28;20075;-80
2022/10/30 10:14:20;;;;;;;19.70;11.32;;;16.60;99.90;;;;;;5034973;28;20085;-80
2022/10/30 10:16:51;;;;;;;21.02;10.85;;;16.70;99.90;;;;;;5037134;28;20526;-79
2022/10/30 10:19:25;;;;;;;18.88;10.70;;;16.90;99.90;;;;;;5054217;28;20037;-80
2022/10/30 10:21:57;;;;;;;;;;;16.90;99.90;;;;;;5055806;28;20075;-80
2022/10/30 10:24:32;;;;;;;20.73;10.48;;;17.00;99.90;;;;;;5035293;28;19995;-80
2022/10/30 10:27:20;;;;;;;18.60;10.15;;;17.00;99.90;;;;;;5037820;28;20053;-79
2022/10/30 10:30:05;;;;;;;19.42;9.80;;;17.00;99.90;;;;;;5052515;28;20494;-79
2022/10/30 10:32:48;;;;;;;22.02;10.38;;;16.90;99.90;;;;;;5054998;28;20320;-79
2022/10/30 10:35:41;;;;;;;22.27;10.63;;;16.90;99.90;;;;;;5056060;28;20025;-79
2022/10/30 10:38:44;;;;;;;21.55;10.45;;;16.80;99.90;;;;;;5033413;28;20642;-80
2022/10/30 10:41:29;;;;;;;20.83;9.90;;;17.00;99.90;;;;;;5048248;28;20033;-79
2022/10/30 10:44:09;;;;;;;19.77;10.15;;;17.10;99.90;;;;;;5051751;28;20152;-79
2022/10/30 10:46:59;;;;;;;16.05;9.77;;;17.10;99.90;;;;;;5052026;28;20705;-79
2022/10/30 10:49:44;;;;;;;22.30;9.88;;;17.20;99.90;;;;;;5051463;28;20055;-79
2022/10/30 10:52:42;;;;;;;18.33;9.73;;;17.20;99.90;;;;;;5052771;28;20040;-79
2022/10/30 10:55:21;;;;;;;18.73;10.35;;;17.20;99.90;;;;;;5053456;28;20049;-79
2022/10/30 10:57:47;;;;;;;21.23;9.07;;;17.30;99.90;;;;;;5054133;28;20036;-78
2022/10/30 11:00:19;;;;;;;20.23;9.90;;;17.30;99.90;;;;;;5054880;28;20445;-79
2022/10/30 11:03:12;;;;;;;17.17;9.93;;;17.40;99.90;;;;;;5054447;28;20566;-80
2022/10/30 11:05:49;;;;;;;18.27;9.13;;;17.60;99.90;;;;;;5054500;28;20044;-79
2022/10/30 11:08:25;;;;;;;23.40;10.40;;;17.70;99.90;;;;;;5055232;28;20037;-80
2022/10/30 11:11:00;;;;;;;16.52;9.38;;;17.80;99.90;;;;;;5038245;28;20036;-78
2022/10/30 11:13:30;;;;;;;17.52;8.98;;;17.90;99.90;;;;;;5054710;28;20029;-79
2022/10/30 11:16:08;;;;;;;15.52;8.77;;;18.10;99.90;;;;;;5054168;28;20075;-80
2022/10/30 11:18:34;;;;;;;17.42;8.35;;;18.20;99.90;;;;;;5052604;28;20144;-79
2022/10/30 11:21:04;;;;;;;15.65;7.80;;;18.30;99.90;;;;;;5053094;28;20068;-79
2022/10/30 11:23:33;;;;;;;14.20;8.38;;;18.30;99.90;;;;;;5053514;28;20037;-79
2022/10/30 11:25:59;;;;;;;17.50;9.25;;;18.50;99.90;;;;;;5051929;28;20041;-80
2022/10/30 11:28:39;;;;;;;14.13;9.13;;;18.50;99.90;;;;;;5051365;28;20469;-79
2022/10/30 11:31:27;;;;;;;19.30;8.82;;;18.60;99.90;;;;;;5052260;28;20041;-80
2022/10/30 11:33:53;;;;;;;15.43;7.88;;;18.60;99.90;;;;;;5051717;28;20045;-80
2022/10/30 11:36:23;;;;;;;17.25;7.63;;;18.70;99.90;;;;;;5052131;28;20048;-80
2022/10/30 11:38:49;;;;;;;15.07;7.25;;;18.70;99.90;;;;;;5051191;28;20670;-79
2022/10/30 11:41:16;;;;;;;14.63;7.47;;;18.80;99.90;;;;;;5048054;28;20432;-79
2022/10/30 11:43:42;;;;;;;17.65;8.18;;;18.80;99.90;;;;;;5051582;28;20411;-79
2022/10/30 11:46:20;;;;;;;14.65;7.75;;;18.90;99.90;;;;;;5051840;28;20128;-79
2022/10/30 11:48:53;;;;;;;15.93;7.60;;;18.90;99.90;;;;;;5051232;28;20041;-80
2022/10/30 11:51:33;;;;;;;13.93;7.67;;;18.90;99.90;;;;;;5052412;28;20040;-79
2022/10/30 11:54:00;;;;;;;12.68;6.70;;;18.70;99.90;;;;;;5053553;28;20141;-80
2022/10/30 11:56:26;;;;;;;19.40;7.35;;;18.70;99.90;;;;;;5055905;28;20044;-79
2022/10/30 11:58:54;;;;;;;15.88;6.70;;;18.70;99.90;;;;;;5054298;28;20093;-80
2022/10/30 12:01:26;;;;;;;16.02;6.97;;;18.70;99.90;;;;;;5054438;28;20047;-80
2022/10/30 12:03:53;;;;;;;13.55;6.70;;;18.70;99.90;;;;;;5055295;28;20399;-79
2022/10/30 12:06:24;;;;;;;22.50;7.75;;;18.70;99.90;;;;;;5056875;28;20041;-79
2022/10/30 12:09:21;;;;;;;11.65;6.80;;;18.70;99.90;;;;;;5055697;28;20484;-79
2022/10/30 12:11:47;;;;;;;12.65;6.78;;;18.80;99.90;;;;;;5054235;28;20033;-80
2022/10/30 12:14:22;;;;;;;13.40;7.25;;;18.80;99.90;;;;;;5054284;28;20037;-79
2022/10/30 12:16:49;;;;;;;16.25;7.13;;;18.70;99.90;;;;;;5053486;28;20063;-80
2022/10/30 12:19:17;;;;;;;12.38;6.63;;;18.70;99.90;;;;;;5053726;28;20564;-79
2022/10/30 12:21:55;;;;;;;14.75;6.68;;;18.80;99.90;;;;;;5053391;28;20492;-77
2022/10/30 12:24:30;;;;;;;15.20;6.50;;;18.80;99.90;;;;;;5053863;28;20040;-79
2022/10/30 12:27:00;;;;;;;14.32;6.15;;;18.90;99.90;;;;;;5054101;28;20036;-79
2022/10/30 12:29:36;;;;;;;13.23;6.20;;;19.00;99.90;;;;;;5053840;28;20064;-78
2022/10/30 12:32:08;;;;;;;16.58;6.10;;;19.10;99.90;;;;;;5053542;28;20395;-80
2022/10/30 12:34:46;;;;;;;14.18;6.38;;;19.20;99.90;;;;;;5053665;28;20041;-80
2022/10/30 12:37:20;;;;;;;12.25;5.65;;;19.20;99.90;;;;;;5054077;28;20036;-79
2022/10/30 12:40:02;;;;;;;17.08;6.97;;;19.20;99.90;;;;;;5043567;28;20041;-80